createdAt,value
2022-11-24T00:00:58.266Z,1004
2022-11-24T00:02:11.068Z,1001
2022-11-24T00:03:15.030Z,1005
2022-11-24T00:04:27.705Z,1004
2022-11-24T00:05:41.783Z,1003
2022-11-24T00:06:44.498Z,1004
2022-11-24T00:07:57.798Z,1004
2022-11-24T00:09:10.407Z,1004
2022-11-24T00:10:23.787Z,1001
2022-11-24T00:11:26.539Z,1000
2022-11-24T00:12:40.323Z,1001
2022-11-24T00:13:53.008Z,1001
2022-11-24T00:14:56.415Z,1000
2022-11-24T00:16:29.280Z,999
2022-11-24T00:17:23.288Z,997
2022-11-24T00:18:25.969Z,998
2022-11-24T00:19:40.475Z,1000
2022-11-24T00:20:53.355Z,999
2022-11-24T00:21:56.822Z,994
2022-11-24T00:23:09.809Z,989
2022-11-24T00:24:23.302Z,991
2022-11-24T00:25:25.995Z,988
2022-11-24T00:26:39.291Z,986
2022-11-24T00:27:51.932Z,983
2022-11-24T00:28:55.290Z,986
2022-11-24T00:30:07.914Z,984
2022-11-24T00:31:21.373Z,982
2022-11-24T00:32:24.144Z,981
2022-11-24T00:33:37.783Z,981
2022-11-24T00:34:50.462Z,983
2022-11-24T00:36:03.831Z,980
2022-11-24T00:37:06.510Z,983
2022-11-24T00:38:19.816Z,979
2022-11-24T00:39:32.522Z,978
2022-11-24T00:40:36.317Z,977
2022-11-24T00:41:49.023Z,977
2022-11-24T00:43:02.443Z,977
2022-11-24T00:44:05.126Z,975
2022-11-24T00:45:18.812Z,973
2022-11-24T00:46:31.623Z,973
2022-11-24T00:47:35.790Z,971
2022-11-24T00:48:58.404Z,970
2022-11-24T00:50:01.821Z,970
2022-11-24T00:51:04.498Z,969
2022-11-24T00:52:17.860Z,968
2022-11-24T00:53:30.518Z,965
2022-11-24T00:54:34.236Z,964
2022-11-24T00:55:47.440Z,963
2022-11-24T00:57:00.784Z,961
2022-11-24T00:58:03.506Z,962
2022-11-24T00:59:17.308Z,962
2022-11-24T01:00:29.944Z,962
2022-11-24T01:01:33.376Z,960
2022-11-24T01:02:46.134Z,960
2022-11-24T01:03:59.822Z,962
2022-11-24T01:05:02.606Z,966
2022-11-24T01:06:16.298Z,965
2022-11-24T01:07:29.031Z,963
2022-11-24T01:08:43.841Z,963
2022-11-24T01:09:46.569Z,963
2022-11-24T01:11:00.301Z,964
2022-11-24T01:12:03.164Z,964
2022-11-24T01:13:16.820Z,961
2022-11-24T01:14:29.485Z,960
2022-11-24T01:15:42.887Z,961
2022-11-24T01:16:45.642Z,962
2022-11-24T01:17:59.296Z,962
2022-11-24T01:19:11.801Z,961
2022-11-24T01:20:15.293Z,959
2022-11-24T01:21:27.714Z,956
2022-11-24T01:22:41.302Z,956
2022-11-24T01:23:44.003Z,955
2022-11-24T01:24:57.404Z,953
2022-11-24T01:26:10.313Z,952
2022-11-24T01:27:13.996Z,954
2022-11-24T01:28:27.114Z,954
2022-11-24T01:29:40.841Z,957
2022-11-24T01:30:44.273Z,956
2022-11-24T01:31:57.823Z,958
2022-11-24T01:33:10.970Z,956
2022-11-24T01:34:25.819Z,955
2022-11-24T01:35:28.502Z,958
2022-11-24T01:36:41.913Z,958
2022-11-24T01:37:44.995Z,956
2022-11-24T01:38:58.715Z,956
2022-11-24T01:40:11.397Z,954
2022-11-24T01:41:14.910Z,956
2022-11-24T01:42:27.555Z,955
2022-11-24T01:43:40.801Z,954
2022-11-24T01:44:43.524Z,954
2022-11-24T01:45:56.848Z,954
2022-11-24T01:47:09.730Z,956
2022-11-24T01:48:27.153Z,951
2022-11-24T01:49:30.924Z,951
2022-11-24T01:50:34.802Z,950
2022-11-24T01:51:47.463Z,946
2022-11-24T01:53:03.359Z,945
2022-11-24T01:54:06.104Z,944
2022-11-24T01:55:19.796Z,945
2022-11-24T01:56:32.478Z,947
2022-11-24T01:57:36.347Z,945
2022-11-24T01:58:48.991Z,944
2022-11-24T02:00:02.299Z,944
2022-11-24T02:01:05.071Z,945
2022-11-24T02:02:18.908Z,948
2022-11-24T02:03:31.545Z,950
2022-11-24T02:04:35.498Z,950
2022-11-24T02:05:48.487Z,950
2022-11-24T02:07:02.337Z,949
2022-11-24T02:08:05.065Z,950
2022-11-24T02:09:18.320Z,952
2022-11-24T02:10:31.008Z,954
2022-11-24T02:11:34.821Z,957
2022-11-24T02:12:47.482Z,956
2022-11-24T02:14:00.807Z,956
2022-11-24T02:15:05.217Z,954
2022-11-24T02:16:18.835Z,956
2022-11-24T02:17:31.556Z,955
2022-11-24T02:18:36.304Z,955
2022-11-24T02:19:48.931Z,955
2022-11-24T02:21:02.328Z,956
2022-11-24T02:22:05.005Z,959
2022-11-24T02:23:18.332Z,959
2022-11-24T02:24:32.389Z,961
2022-11-24T02:25:48.856Z,962
2022-11-24T02:26:51.575Z,962
2022-11-24T02:27:55.307Z,965
2022-11-24T02:29:07.954Z,967
2022-11-24T02:30:21.316Z,967
2022-11-24T02:31:24.182Z,970
2022-11-24T02:32:37.836Z,970
2022-11-24T02:33:51.433Z,973
2022-11-24T02:34:55.830Z,977
2022-11-24T02:36:08.488Z,980
2022-11-24T02:37:21.810Z,982
2022-11-24T02:38:31.068Z,985
2022-11-24T02:39:34.447Z,987
2022-11-24T02:40:47.174Z,988
2022-11-24T02:42:00.857Z,990
2022-11-24T02:43:13.503Z,993
2022-11-24T02:44:16.839Z,996
2022-11-24T02:45:29.700Z,1001
2022-11-24T02:46:43.357Z,1006
2022-11-24T02:47:46.294Z,1009
2022-11-24T02:49:19.848Z,1012
2022-11-24T02:50:12.784Z,1014
2022-11-24T02:51:15.604Z,1014
2022-11-24T02:52:28.820Z,1014
2022-11-24T02:53:41.471Z,1009
2022-11-24T02:54:44.820Z,1008
2022-11-24T02:55:57.468Z,1012
2022-11-24T02:57:10.931Z,1016
2022-11-24T02:58:23.741Z,1015
2022-11-24T02:59:27.351Z,1014
2022-11-24T03:00:40.033Z,1016
2022-11-24T03:01:53.421Z,1017
2022-11-24T03:02:56.416Z,1020
2022-11-24T03:04:09.850Z,1022
2022-11-24T03:05:22.506Z,1021
2022-11-24T03:06:25.844Z,1020
2022-11-24T03:07:38.687Z,1024
2022-11-24T03:08:52.357Z,1023
2022-11-24T03:09:55.065Z,1022
2022-11-24T03:11:08.448Z,1024
2022-11-24T03:12:21.099Z,1021
2022-11-24T03:13:34.812Z,1021
2022-11-24T03:14:37.661Z,1022
2022-11-24T03:15:51.439Z,1024
2022-11-24T03:17:04.245Z,1026
2022-11-24T03:18:07.824Z,1027
2022-11-24T03:19:20.490Z,1028
2022-11-24T03:20:33.838Z,1031
2022-11-24T03:21:36.416Z,1030
2022-11-24T03:22:49.864Z,1027
2022-11-24T03:24:02.300Z,1028
2022-11-24T03:25:05.861Z,1031
2022-11-24T03:26:18.283Z,1029
2022-11-24T03:27:31.395Z,1032
2022-11-24T03:28:43.852Z,1034
2022-11-24T03:29:47.382Z,1036
2022-11-24T03:31:00.237Z,1035
2022-11-24T03:32:13.831Z,1035
2022-11-24T03:33:16.690Z,1033
2022-11-24T03:34:30.449Z,1031
2022-11-24T03:35:43.082Z,1033
2022-11-24T03:36:46.840Z,1035
2022-11-24T03:37:59.627Z,1034
2022-11-24T03:39:33.427Z,1033
2022-11-24T03:40:16.255Z,1036
2022-11-24T03:41:28.905Z,1034
2022-11-24T03:42:42.453Z,1035
2022-11-24T03:44:04.988Z,1036
2022-11-24T03:45:04.275Z,1036
2022-11-24T03:46:09.806Z,1036
2022-11-24T03:47:23.332Z,1036
2022-11-24T03:49:05.784Z,1035
2022-11-24T03:51:26.881Z,1036
2022-11-24T03:52:02.674Z,1032
2022-11-24T03:53:09.322Z,1030
2022-11-24T03:54:22.976Z,1032
2022-11-24T03:55:25.675Z,1032
2022-11-24T03:56:38.898Z,1035
2022-11-24T03:57:51.530Z,1036
2022-11-24T03:58:54.929Z,1037
2022-11-24T04:00:07.540Z,1037
2022-11-24T04:01:20.946Z,1037
2022-11-24T04:02:23.770Z,1038
2022-11-24T04:03:37.438Z,1038
2022-11-24T04:04:50.104Z,1035
2022-11-24T04:05:53.467Z,1036
2022-11-24T04:07:36.175Z,1035
2022-11-24T04:08:19.947Z,1038
2022-11-24T04:09:22.622Z,1038
2022-11-24T04:10:36.098Z,1038
2022-11-24T04:11:48.765Z,1038
2022-11-24T04:12:52.409Z,1034
2022-11-24T04:14:07.895Z,1033
2022-11-24T04:15:15.444Z,1033
2022-11-24T04:16:28.041Z,1033
2022-11-24T04:17:41.424Z,1033
2022-11-24T04:18:44.003Z,1034
2022-11-24T04:19:57.580Z,1036
2022-11-24T04:21:10.325Z,1037
2022-11-24T04:22:13.926Z,1036
2022-11-24T04:23:26.655Z,1039
2022-11-24T04:24:39.925Z,1036
2022-11-24T04:25:42.671Z,1035
2022-11-24T04:26:56.473Z,1033
2022-11-24T04:28:09.292Z,1031
2022-11-24T04:29:12.930Z,1030
2022-11-24T04:30:25.611Z,1029
2022-11-24T04:31:39.026Z,1027
2022-11-24T04:32:41.974Z,1028
2022-11-24T04:33:55.615Z,1027
2022-11-24T04:35:08.302Z,1029
2022-11-24T04:36:41.944Z,1029
2022-11-24T04:37:24.806Z,1030
2022-11-24T04:39:19.986Z,1029
2022-11-24T04:39:49.707Z,1029
2022-11-24T04:40:52.718Z,1027
2022-11-24T04:42:25.930Z,1026
2022-11-24T04:43:18.672Z,1029
2022-11-24T04:44:32.608Z,1026
2022-11-24T04:45:35.621Z,1029
2022-11-24T04:46:49.030Z,1026
2022-11-24T04:47:51.795Z,1025
2022-11-24T04:49:05.426Z,1025
2022-11-24T04:50:18.134Z,1026
2022-11-24T04:51:31.462Z,1025
2022-11-24T04:52:34.190Z,1026
2022-11-24T04:53:47.944Z,1025
2022-11-24T04:55:00.612Z,1028
2022-11-24T04:56:04.052Z,1026
2022-11-24T04:57:16.771Z,1029
2022-11-24T04:58:30.458Z,1029
2022-11-24T04:59:33.178Z,1028
2022-11-24T05:00:47.072Z,1029
2022-11-24T05:01:59.781Z,1029
2022-11-24T05:03:03.919Z,1029
2022-11-24T05:04:16.605Z,1031
2022-11-24T05:05:29.941Z,1032
2022-11-24T05:06:32.643Z,1030
2022-11-24T05:07:45.979Z,1031
2022-11-24T05:08:58.755Z,1032
2022-11-24T05:10:12.529Z,1031
2022-11-24T05:11:15.250Z,1033
2022-11-24T05:12:29.923Z,1032
2022-11-24T05:13:32.637Z,1034
2022-11-24T05:14:45.962Z,1037
2022-11-24T05:15:58.693Z,1040
2022-11-24T05:17:12.412Z,1040
2022-11-24T05:18:15.142Z,1043
2022-11-24T05:19:31.210Z,1047
2022-11-24T05:20:35.230Z,1055
2022-11-24T05:21:48.964Z,1065
2022-11-24T05:23:01.685Z,1086
2022-11-24T05:24:05.480Z,1119
2022-11-24T05:25:18.173Z,1139
2022-11-24T05:26:31.470Z,1149
2022-11-24T05:27:34.211Z,1155
2022-11-24T05:28:47.948Z,1162
2022-11-24T05:30:00.588Z,1169
2022-11-24T05:31:04.065Z,1177
2022-11-24T05:32:16.805Z,1183
2022-11-24T05:33:30.461Z,1191
2022-11-24T05:34:33.576Z,1199
2022-11-24T05:35:46.950Z,1210
2022-11-24T05:36:59.623Z,1214
2022-11-24T05:38:02.989Z,1236
2022-11-24T05:39:15.718Z,1256
2022-11-24T05:40:29.465Z,1273
2022-11-24T05:41:32.435Z,1287
2022-11-24T05:42:47.962Z,1296
2022-11-24T05:43:51.276Z,1301
2022-11-24T05:45:05.028Z,1307
2022-11-24T05:46:17.787Z,1310
2022-11-24T05:47:31.476Z,1314
2022-11-24T05:48:44.174Z,1323
2022-11-24T05:49:47.946Z,1333
2022-11-24T05:50:50.724Z,1340
2022-11-24T05:52:03.972Z,1345
2022-11-24T05:53:16.655Z,1351
2022-11-24T05:54:30.437Z,1358
2022-11-24T05:55:33.179Z,1362
2022-11-24T05:56:46.932Z,1364
2022-11-24T05:57:59.610Z,1368
2022-11-24T05:59:08.211Z,1371
2022-11-24T06:00:12.547Z,1378
2022-11-24T06:01:26.074Z,1384
2022-11-24T06:02:38.854Z,1385
2022-11-24T06:03:42.963Z,1391
2022-11-24T06:04:55.619Z,1397
2022-11-24T06:06:08.941Z,1402
2022-11-24T06:07:11.723Z,1405
2022-11-24T06:08:30.809Z,1406
2022-11-24T06:09:34.041Z,1408
2022-11-24T06:10:47.442Z,1413
2022-11-24T06:11:50.173Z,1415
2022-11-24T06:13:03.754Z,1415
2022-11-24T06:14:16.560Z,1415
2022-11-24T06:15:30.016Z,1412
2022-11-24T06:16:32.903Z,1408
2022-11-24T06:17:47.491Z,1392
2022-11-24T06:18:50.203Z,1385
2022-11-24T06:20:03.495Z,1358
2022-11-24T06:21:16.181Z,1338
2022-11-24T06:22:29.494Z,1308
2022-11-24T06:23:32.374Z,1179
2022-11-24T06:24:48.588Z,985
2022-11-24T06:25:51.720Z,1017
2022-11-24T06:27:04.951Z,992
2022-11-24T06:28:17.569Z,983
2022-11-24T06:29:21.006Z,994
2022-11-24T06:30:33.758Z,1002
2022-11-24T06:31:47.471Z,1011
2022-11-24T06:32:50.261Z,1013
2022-11-24T06:34:03.958Z,1013
2022-11-24T06:35:16.586Z,1013
2022-11-24T06:36:20.473Z,1019
2022-11-24T06:37:33.519Z,1018
2022-11-24T06:38:46.947Z,1019
2022-11-24T06:39:49.689Z,1019
2022-11-24T06:41:02.960Z,1019
2022-11-24T06:42:15.650Z,1021
2022-11-24T06:43:28.997Z,1024
2022-11-24T06:44:32.319Z,1028
2022-11-24T06:45:46.516Z,1029
2022-11-24T06:46:49.325Z,1031
2022-11-24T06:48:03.972Z,1033
2022-11-24T06:49:26.614Z,1035
2022-11-24T06:50:19.960Z,1035
2022-11-24T06:51:32.769Z,1033
2022-11-24T06:52:46.483Z,1033
2022-11-24T06:53:59.099Z,1032
2022-11-24T06:55:02.453Z,1032
2022-11-24T06:56:16.596Z,1033
2022-11-24T06:57:20.492Z,1034
2022-11-24T06:58:33.143Z,1033
2022-11-24T06:59:46.463Z,1034
2022-11-24T07:00:49.164Z,1032
2022-11-24T07:02:02.464Z,1034
2022-11-24T07:03:15.272Z,1034
2022-11-24T07:04:29.052Z,1032
2022-11-24T07:05:31.837Z,1031
2022-11-24T07:06:45.479Z,1031
2022-11-24T07:07:58.301Z,1031
2022-11-24T07:09:01.994Z,1029
2022-11-24T07:10:14.632Z,1029
2022-11-24T07:11:27.985Z,1029
2022-11-24T07:12:30.670Z,1025
2022-11-24T07:13:43.967Z,1021
2022-11-24T07:14:56.658Z,1018
2022-11-24T07:16:00.043Z,1016
2022-11-24T07:17:12.755Z,1012
2022-11-24T07:18:26.472Z,1010
2022-11-24T07:19:29.187Z,1005
2022-11-24T07:20:42.476Z,1001
2022-11-24T07:21:55.323Z,997
2022-11-24T07:23:08.959Z,993
2022-11-24T07:24:11.687Z,989
2022-11-24T07:25:25.001Z,985
2022-11-24T07:26:37.712Z,982
2022-11-24T07:27:41.686Z,981
2022-11-24T07:28:54.410Z,975
2022-11-24T07:30:08.016Z,972
2022-11-24T07:31:20.806Z,968
2022-11-24T07:32:24.488Z,964
2022-11-24T07:33:37.159Z,960
2022-11-24T07:34:40.458Z,954
2022-11-24T07:35:53.069Z,951
2022-11-24T07:37:06.482Z,943
2022-11-24T07:38:09.166Z,938
2022-11-24T07:39:22.471Z,932
2022-11-24T07:40:35.146Z,927
2022-11-24T07:41:48.509Z,925
2022-11-24T07:42:51.229Z,920
2022-11-24T07:44:04.648Z,919
2022-11-24T07:45:17.355Z,913
2022-11-24T07:46:21.082Z,909
2022-11-24T07:47:33.837Z,907
2022-11-24T07:48:47.480Z,905
2022-11-24T07:49:50.078Z,906
2022-11-24T07:51:03.464Z,906
2022-11-24T07:52:15.977Z,907
2022-11-24T07:53:19.485Z,905
2022-11-24T07:54:32.256Z,908
2022-11-24T07:55:45.504Z,910
2022-11-24T07:56:48.020Z,911
2022-11-24T07:58:01.482Z,910
2022-11-24T07:59:13.911Z,910
2022-11-24T08:00:27.517Z,910
2022-11-24T08:01:30.091Z,912
2022-11-24T08:02:43.579Z,911
2022-11-24T08:03:56.133Z,911
2022-11-24T08:04:59.493Z,910
2022-11-24T08:06:28.665Z,909
2022-11-24T08:07:26.040Z,909
2022-11-24T08:08:28.608Z,908
2022-11-24T08:09:41.988Z,907
2022-11-24T08:10:55.416Z,910
2022-11-24T08:11:58.524Z,912
2022-11-24T08:13:10.903Z,912
2022-11-24T08:14:24.036Z,912
2022-11-24T08:15:26.468Z,911
2022-11-24T08:16:39.528Z,909
2022-11-24T08:17:51.975Z,911
2022-11-24T08:19:04.991Z,910
2022-11-24T08:20:07.371Z,908
2022-11-24T08:21:20.514Z,909
2022-11-24T08:22:32.862Z,909
2022-11-24T08:23:35.973Z,908
2022-11-24T08:24:48.262Z,908
2022-11-24T08:26:01.525Z,911
2022-11-24T08:27:13.847Z,912
2022-11-24T08:28:16.980Z,914
2022-11-24T08:29:29.319Z,920
2022-11-24T08:30:42.503Z,928
2022-11-24T08:31:44.974Z,929
2022-11-24T08:32:57.988Z,929
2022-11-24T08:34:10.249Z,928
2022-11-24T08:35:23.525Z,928
2022-11-24T08:36:25.918Z,926
2022-11-24T08:37:39.541Z,925
2022-11-24T08:38:51.810Z,923
2022-11-24T08:39:55.018Z,925
2022-11-24T08:41:07.301Z,939
2022-11-24T08:42:20.515Z,942
2022-11-24T08:43:22.966Z,943
2022-11-24T08:44:36.551Z,941
2022-11-24T08:45:49.404Z,943
2022-11-24T08:46:52.529Z,947
2022-11-24T08:48:04.791Z,946
2022-11-24T08:49:18.026Z,944
2022-11-24T08:50:20.456Z,939
2022-11-24T08:51:33.516Z,939
2022-11-24T08:52:45.776Z,937
2022-11-24T08:53:59.030Z,939
2022-11-24T08:55:01.370Z,938
2022-11-24T08:56:15.018Z,935
2022-11-24T08:57:27.315Z,931
2022-11-24T08:58:30.542Z,932
2022-11-24T08:59:42.855Z,934
2022-11-24T09:00:56.028Z,935
2022-11-24T09:01:58.550Z,934
2022-11-24T09:03:11.535Z,934
2022-11-24T09:04:23.812Z,933
2022-11-24T09:05:51.701Z,936
2022-11-24T09:06:44.973Z,934
2022-11-24T09:07:47.473Z,934
2022-11-24T09:09:00.503Z,936
2022-11-24T09:10:12.742Z,940
2022-11-24T09:11:26.022Z,940
2022-11-24T09:12:28.449Z,942
2022-11-24T09:13:41.530Z,939
2022-11-24T09:14:53.828Z,939
2022-11-24T09:15:57.037Z,937
2022-11-24T09:17:09.305Z,936
2022-11-24T09:18:25.230Z,935
2022-11-24T09:19:31.635Z,932
2022-11-24T09:20:45.031Z,935
2022-11-24T09:21:47.389Z,933
2022-11-24T09:23:00.537Z,934
2022-11-24T09:24:12.813Z,934
2022-11-24T09:25:16.085Z,934
2022-11-24T09:26:28.295Z,937
2022-11-24T09:27:41.554Z,937
2022-11-24T09:28:43.878Z,938
2022-11-24T09:29:57.017Z,939
2022-11-24T09:31:09.312Z,942
2022-11-24T09:32:12.566Z,944
2022-11-24T09:33:24.939Z,947
2022-11-24T09:34:38.018Z,949
2022-11-24T09:35:40.385Z,951
2022-11-24T09:36:53.532Z,952
2022-11-24T09:38:05.738Z,953
2022-11-24T09:39:18.539Z,954
2022-11-24T09:40:20.952Z,955
2022-11-24T09:41:34.095Z,956
2022-11-24T09:42:52.083Z,959
2022-11-24T09:43:56.545Z,958
2022-11-24T09:44:58.911Z,955
2022-11-24T09:46:12.092Z,956
2022-11-24T09:47:24.423Z,957
2022-11-24T09:48:37.530Z,959
2022-11-24T09:49:39.891Z,958
2022-11-24T09:50:53.028Z,962
2022-11-24T09:52:05.218Z,962
2022-11-24T09:53:08.499Z,964
2022-11-24T09:54:20.775Z,965
2022-11-24T09:55:37.037Z,966
2022-11-24T09:56:39.316Z,965
2022-11-24T09:57:53.042Z,963
2022-11-24T09:59:05.290Z,961
2022-11-24T10:00:08.548Z,960
2022-11-24T10:01:20.794Z,961
2022-11-24T10:02:34.090Z,959
2022-11-24T10:03:36.561Z,960
2022-11-24T10:04:49.583Z,961
2022-11-24T10:06:01.868Z,960
2022-11-24T10:07:05.095Z,959
2022-11-24T10:08:17.328Z,960
2022-11-24T10:09:30.518Z,958
2022-11-24T10:10:42.745Z,958
2022-11-24T10:11:46.039Z,958
2022-11-24T10:12:58.276Z,959
2022-11-24T10:14:11.546Z,961
2022-11-24T10:15:13.964Z,963
2022-11-24T10:16:27.043Z,964
2022-11-24T10:17:39.220Z,964
2022-11-24T10:18:42.522Z,964
2022-11-24T10:19:54.756Z,966
2022-11-24T10:21:07.551Z,965
2022-11-24T10:22:19.776Z,964
2022-11-24T10:23:23.038Z,963
2022-11-24T10:24:35.248Z,965
2022-11-24T10:25:48.060Z,967
2022-11-24T10:26:50.337Z,968
2022-11-24T10:28:03.564Z,969
2022-11-24T10:29:15.747Z,967
2022-11-24T10:30:29.150Z,967
2022-11-24T10:31:31.394Z,966
2022-11-24T10:32:44.553Z,966
2022-11-24T10:33:56.719Z,966
2022-11-24T10:35:00.351Z,968
2022-11-24T10:36:12.889Z,968
2022-11-24T10:37:26.079Z,968
2022-11-24T10:38:38.277Z,967
2022-11-24T10:39:41.538Z,963
2022-11-24T10:40:58.121Z,961
2022-11-24T10:42:01.514Z,962
2022-11-24T10:43:13.732Z,962
2022-11-24T10:44:28.030Z,961
2022-11-24T10:45:30.274Z,962
2022-11-24T10:46:44.639Z,963
2022-11-24T10:47:56.917Z,964
2022-11-24T10:49:00.061Z,966
2022-11-24T10:50:12.246Z,966
2022-11-24T10:51:25.057Z,966
2022-11-24T10:52:27.278Z,967
2022-11-24T10:53:40.046Z,969
2022-11-24T10:54:52.208Z,970
2022-11-24T10:56:05.066Z,970
2022-11-24T10:57:07.292Z,973
2022-11-24T10:58:20.027Z,975
2022-11-24T10:59:32.656Z,975
2022-11-24T11:00:36.057Z,974
2022-11-24T11:01:48.219Z,975
2022-11-24T11:03:01.081Z,978
2022-11-24T11:04:13.360Z,978
2022-11-24T11:05:16.556Z,978
2022-11-24T11:06:28.689Z,978
2022-11-24T11:07:41.649Z,980
2022-11-24T11:08:43.888Z,980
2022-11-24T11:09:56.569Z,980
2022-11-24T11:11:08.684Z,983
2022-11-24T11:12:42.703Z,983
2022-11-24T11:13:26.241Z,983
2022-11-24T11:14:38.348Z,985
2022-11-24T11:15:51.118Z,983
2022-11-24T11:16:53.472Z,983
2022-11-24T11:18:06.547Z,984
2022-11-24T11:19:47.270Z,982
2022-11-24T11:20:22.072Z,984
2022-11-24T11:21:34.772Z,982
2022-11-24T11:22:47.553Z,983
2022-11-24T11:23:49.804Z,984
2022-11-24T11:25:02.545Z,984
2022-11-24T11:26:14.598Z,985
2022-11-24T11:27:27.584Z,980
2022-11-24T11:28:29.739Z,981
2022-11-24T11:31:19.852Z,976
2022-11-24T11:34:25.009Z,970
2022-11-24T11:35:28.053Z,968
2022-11-24T11:36:40.108Z,968
2022-11-24T11:37:53.111Z,965
2022-11-24T11:39:05.181Z,962
2022-11-24T11:40:08.586Z,962
2022-11-24T11:41:20.622Z,958
2022-11-24T11:43:00.886Z,956
2022-11-24T11:43:34.865Z,953
2022-11-24T11:44:46.842Z,951
2022-11-24T11:45:59.752Z,950
2022-11-24T11:47:12.184Z,945
2022-11-24T11:48:15.078Z,944
2022-11-24T11:49:27.086Z,939
2022-11-24T11:51:06.691Z,936
2022-11-24T11:51:44.529Z,930
2022-11-24T11:52:56.707Z,929
2022-11-24T11:54:09.604Z,926
2022-11-24T11:55:11.816Z,922
2022-11-24T11:56:26.074Z,919
2022-11-24T11:57:38.506Z,914
2022-11-24T12:00:03.509Z,907
2022-11-24T12:01:05.610Z,906
2022-11-24T12:02:18.374Z,903
2022-11-24T12:03:20.739Z,900
2022-11-24T12:04:33.972Z,896
2022-11-24T12:05:46.231Z,895
2022-11-24T12:06:49.300Z,895
2022-11-24T12:09:28.351Z,887
2022-11-24T12:10:20.685Z,882
2022-11-24T12:11:33.455Z,878
2022-11-24T12:12:45.574Z,874
2022-11-24T12:13:48.418Z,871
2022-11-24T12:15:03.453Z,869
2022-11-24T12:16:09.024Z,870
2022-11-24T12:17:21.159Z,866
2022-11-24T12:18:56.665Z,865
2022-11-24T12:19:39.909Z,862
2022-11-24T12:20:51.977Z,858
2022-11-24T12:22:04.877Z,855
2022-11-24T12:23:06.983Z,854
2022-11-24T12:24:19.924Z,852
2022-11-24T12:25:32.057Z,848
2022-11-24T12:26:34.875Z,844
2022-11-24T12:27:46.890Z,842
2022-11-24T12:28:59.874Z,843
2022-11-24T12:30:11.994Z,843
2022-11-24T12:31:14.944Z,841
2022-11-24T12:32:27.049Z,843
2022-11-24T12:33:39.900Z,846
2022-11-24T12:34:42.092Z,852
2022-11-24T12:35:54.863Z,852
2022-11-24T12:37:06.909Z,851
2022-11-24T12:38:19.883Z,857
2022-11-24T12:39:21.986Z,853
2022-11-24T12:40:34.890Z,856
2022-11-24T12:41:46.898Z,860
2022-11-24T12:42:49.920Z,863
2022-11-24T12:44:01.947Z,871
2022-11-24T12:45:14.913Z,876
2022-11-24T12:46:27.117Z,878
2022-11-24T12:47:30.383Z,883
2022-11-24T12:48:42.395Z,885
2022-11-24T12:49:55.406Z,888
2022-11-24T12:50:57.632Z,892
2022-11-24T12:52:10.377Z,894
2022-11-24T12:53:22.378Z,898
2022-11-24T12:54:35.378Z,902
2022-11-24T12:55:37.560Z,906
2022-11-24T12:56:50.415Z,913
2022-11-24T12:59:19.442Z,935
2022-11-24T13:00:21.569Z,938
2022-11-24T13:01:34.547Z,945
2022-11-24T13:02:36.907Z,946
2022-11-24T13:03:49.900Z,948
2022-11-24T13:05:01.834Z,951
2022-11-24T13:06:04.898Z,954
2022-11-24T13:07:16.939Z,955
2022-11-24T13:08:29.896Z,961
2022-11-24T13:09:32.013Z,967
2022-11-24T13:10:56.365Z,968
2022-11-24T13:12:03.501Z,968
2022-11-24T13:13:06.912Z,970
2022-11-24T13:14:18.881Z,970
2022-11-24T13:15:44.665Z,975
2022-11-24T13:16:48.544Z,975
2022-11-24T13:18:06.842Z,978
2022-11-24T13:18:54.544Z,982
2022-11-24T13:20:06.583Z,985
2022-11-24T13:21:09.403Z,985
2022-11-24T13:22:21.347Z,988
2022-11-24T13:23:34.766Z,991
2022-11-24T13:24:46.670Z,991
2022-11-24T13:25:49.916Z,998
2022-11-24T13:27:01.857Z,1004
2022-11-24T13:28:17.502Z,1008
2022-11-24T13:29:25.295Z,1012
2022-11-24T13:30:28.429Z,1017
2022-11-24T13:31:59.943Z,1018
2022-11-24T13:32:52.927Z,1021
2022-11-24T13:33:54.963Z,1026
2022-11-24T13:35:07.914Z,1023
2022-11-24T13:36:19.804Z,1016
2022-11-24T13:37:35.729Z,995
2022-11-24T13:38:38.041Z,946
2022-11-24T13:39:50.945Z,865
2022-11-24T13:41:13.506Z,745
2022-11-24T13:42:41.835Z,710
2022-11-24T13:43:16.756Z,705
2022-11-24T13:44:28.619Z,714
2022-11-24T13:45:31.945Z,699
2022-11-24T13:46:43.991Z,695
2022-11-24T13:47:56.915Z,687
2022-11-24T13:49:08.834Z,675
2022-11-24T13:50:11.932Z,668
2022-11-24T13:51:23.980Z,659
2022-11-24T13:52:36.937Z,657
2022-11-24T13:53:39.018Z,652
2022-11-24T13:54:51.928Z,640
2022-11-24T13:56:03.834Z,630
2022-11-24T13:57:16.480Z,625
2022-11-24T13:58:18.543Z,627
2022-11-24T13:59:31.406Z,618
2022-11-24T14:00:43.311Z,618
2022-11-24T14:01:55.973Z,620
2022-11-24T14:02:58.209Z,623
2022-11-24T14:04:31.579Z,626
2022-11-24T14:05:24.781Z,629
2022-11-24T14:07:53.362Z,640
2022-11-24T14:08:45.695Z,647
2022-11-24T14:10:01.789Z,653
2022-11-24T14:11:13.687Z,659
2022-11-24T14:12:16.937Z,662
2022-11-24T14:13:28.935Z,667
2022-11-24T14:14:41.791Z,669
2022-11-24T14:15:43.857Z,671
2022-11-24T14:16:56.802Z,678
2022-11-24T14:18:08.685Z,685
2022-11-24T14:19:21.245Z,697
2022-11-24T14:20:23.375Z,705
2022-11-24T14:21:36.381Z,712
2022-11-24T14:22:48.270Z,718
2022-11-24T14:24:01.258Z,720
2022-11-24T14:25:03.338Z,723
2022-11-24T14:26:16.763Z,728
2022-11-24T14:27:28.693Z,732
2022-11-24T14:28:31.823Z,737
2022-11-24T14:29:43.790Z,742
2022-11-24T14:30:56.273Z,743
2022-11-24T14:32:08.437Z,747
2022-11-24T14:33:11.281Z,748
2022-11-24T14:34:23.266Z,751
2022-11-24T14:35:35.832Z,755
2022-11-24T14:36:38.160Z,757
2022-11-24T14:37:50.776Z,756
2022-11-24T14:39:02.615Z,763
2022-11-24T14:40:16.777Z,766
2022-11-24T14:41:18.904Z,765
2022-11-24T14:42:31.750Z,766
2022-11-24T14:43:43.716Z,773
2022-11-24T14:44:46.753Z,777
2022-11-24T14:45:58.738Z,781
2022-11-24T14:47:11.779Z,782
2022-11-24T14:48:23.767Z,785
2022-11-24T14:49:26.793Z,787
2022-11-24T14:50:38.779Z,791
2022-11-24T14:51:51.805Z,798
2022-11-24T14:52:53.939Z,803
2022-11-24T14:54:06.808Z,808
2022-11-24T14:55:23.164Z,812
2022-11-24T14:56:26.258Z,813
2022-11-24T14:57:38.293Z,818
2022-11-24T14:58:51.319Z,822
2022-11-24T14:59:53.486Z,826
2022-11-24T15:01:06.352Z,828
2022-11-24T15:02:18.511Z,836
2022-11-24T15:03:31.309Z,839
2022-11-24T15:05:02.565Z,843
2022-11-24T15:05:46.775Z,849
2022-11-24T15:06:58.908Z,855
2022-11-24T15:08:01.812Z,859
2022-11-24T15:09:13.866Z,865
2022-11-24T15:10:32.168Z,871
2022-11-24T15:11:35.902Z,875
2022-11-24T15:12:49.304Z,879
2022-11-24T15:13:51.480Z,885
2022-11-24T15:15:04.277Z,889
2022-11-24T15:16:16.439Z,889
2022-11-24T15:17:29.294Z,897
2022-11-24T15:18:31.509Z,906
2022-11-24T15:19:44.792Z,913
2022-11-24T15:20:56.852Z,925
2022-11-24T15:21:59.802Z,931
2022-11-24T15:23:11.919Z,933
2022-11-24T15:24:24.778Z,937
2022-11-24T15:25:36.838Z,942
2022-11-24T15:26:42.115Z,947
2022-11-24T15:27:54.592Z,950
2022-11-24T15:29:07.302Z,953
2022-11-24T15:30:09.444Z,953
2022-11-24T15:31:22.371Z,955
2022-11-24T15:32:34.475Z,955
2022-11-24T15:33:37.313Z,959
2022-11-24T15:34:49.372Z,962
2022-11-24T15:36:02.289Z,963
2022-11-24T15:37:14.366Z,966
2022-11-24T15:38:17.357Z,968
2022-11-24T15:39:29.439Z,973
2022-11-24T15:40:42.310Z,977
2022-11-24T15:41:54.371Z,982
2022-11-24T15:42:59.614Z,986
2022-11-24T15:44:05.729Z,986
2022-11-24T15:45:18.771Z,985
2022-11-24T15:46:30.893Z,987
2022-11-24T15:47:43.799Z,989
2022-11-24T15:48:45.952Z,991
2022-11-24T15:49:58.804Z,994
2022-11-24T15:51:10.813Z,996
2022-11-24T15:52:23.803Z,1000
2022-11-24T15:53:25.959Z,1004
2022-11-24T15:54:38.824Z,1005
2022-11-24T15:55:50.834Z,1006
2022-11-24T15:56:54.298Z,1007
2022-11-24T15:58:06.372Z,1008
2022-11-24T15:59:21.205Z,1013
2022-11-24T16:00:23.780Z,1015